Chester Depot, Vermont
Current Conditions -  °F | °C
As of 9:55 AM on Friday 28 Nov 2014 (Local Time) from KRUT Reporting Station
Overcast Overcast  
Wind Chill: 19°   Ceiling: 2200
Heat Index: 25°   Visibility: 10mi
Dew Point: 18°   Wind: 5mph
Humidity: 74%   Direction: 290°WNW
Pressure: 30.08"   Gusts: NA
Location:  43.36°N, 72.57°W
Report Text: KRUT 281455Z 29004KT 10SM FEW017 BKN022 OVC029 M04/M08 A3008 RMK AO1 52014
Loading
Personal Weather Stations






























Interactive Weather Map New forecast layout! Learn more

10-Day Weather Forecast

Advertisements
Track Severe Weather on mobile